createdAt,value
2019-01-21T00:00:35.669Z,102096.59
2019-01-21T00:02:37.057Z,102101.17
2019-01-21T00:04:38.496Z,102098.75
2019-01-21T00:06:39.927Z,102095.55
2019-01-21T00:08:41.283Z,102095.89
2019-01-21T00:10:42.678Z,102092.38
2019-01-21T00:12:44.093Z,102096.47
2019-01-21T00:14:45.617Z,102098.37
2019-01-21T00:16:47.063Z,102096.01
2019-01-21T00:18:48.432Z,102094.19
2019-01-21T00:20:49.989Z,102095.54
2019-01-21T00:22:51.429Z,102094.75
2019-01-21T00:24:52.791Z,102094.64
2019-01-21T00:26:54.301Z,102093.12
2019-01-21T00:28:55.728Z,102091.54
2019-01-21T00:30:57.112Z,102096.37
2019-01-21T00:32:58.535Z,102088.84
2019-01-21T00:34:59.920Z,102090.56
2019-01-21T00:37:03.527Z,102095.55
2019-01-21T00:39:05.390Z,102090.75
2019-01-21T00:41:06.743Z,102090.02
2019-01-21T00:43:08.133Z,102095.08
2019-01-21T00:45:09.637Z,102088.27
2019-01-21T00:47:11.004Z,102091.80
2019-01-21T00:49:12.386Z,102093.80
2019-01-21T00:51:13.840Z,102086.53
2019-01-21T00:53:15.223Z,102093.75
2019-01-21T00:55:16.573Z,102089.69
2019-01-21T00:57:18.015Z,102091.41
2019-01-21T00:59:19.376Z,102084.80
2019-01-21T01:01:20.806Z,102086.97
2019-01-21T01:03:22.249Z,102094.15
2019-01-21T01:05:23.829Z,102089.65
2019-01-21T01:07:25.209Z,102091.31
2019-01-21T01:09:26.621Z,102092.45
2019-01-21T01:11:28.057Z,102093.77
2019-01-21T01:13:29.444Z,102091.25
2019-01-21T01:15:30.813Z,102094.58
2019-01-21T01:17:37.081Z,102101.99
2019-01-21T01:19:35.520Z,102097.46
2019-01-21T01:21:36.890Z,102098.25
2019-01-21T01:23:38.442Z,102104.75
2019-01-21T01:25:39.808Z,102097.66
2019-01-21T01:27:41.191Z,102095.56
2019-01-21T01:29:42.630Z,102100.63
2019-01-21T01:31:44.010Z,102099.78
2019-01-21T01:33:45.363Z,102092.48
2019-01-21T01:35:46.795Z,102094.80
2019-01-21T01:37:48.175Z,102093.41
2019-01-21T01:39:49.621Z,102090.55
2019-01-21T01:41:51.250Z,102093.91
2019-01-21T01:43:52.633Z,102097.40
2019-01-21T01:45:54.018Z,102093.80
2019-01-21T01:47:59.370Z,102090.66
2019-01-21T01:50:01.047Z,102098.25
2019-01-21T01:52:02.436Z,102098.70
2019-01-21T01:54:04.069Z,102100.48
2019-01-21T01:56:05.476Z,102097.13
2019-01-21T01:58:06.960Z,102094.47
2019-01-21T02:00:13.703Z,102094.45
2019-01-21T02:02:15.079Z,102091.34
2019-01-21T02:04:16.427Z,102092.69
2019-01-21T02:06:17.904Z,102094.05
2019-01-21T02:08:19.322Z,102096.59
2019-01-21T02:10:20.703Z,102100.71
2019-01-21T02:12:22.669Z,102096.82
2019-01-21T02:14:24.026Z,102091.80
2019-01-21T02:16:25.415Z,102099.39
2019-01-21T02:18:26.825Z,102097.59
2019-01-21T02:20:28.187Z,102100.87
2019-01-21T02:22:30.173Z,102103.67
2019-01-21T02:24:34.485Z,102100.95
2019-01-21T02:26:40.900Z,102104.84
2019-01-21T02:28:50.770Z,102099.02
2019-01-21T02:31:12.896Z,102101.67
2019-01-21T02:33:22.714Z,102096.96
2019-01-21T02:35:29.851Z,102097.95
2019-01-21T02:37:42.956Z,102102.14
2019-01-21T02:40:27.972Z,102098.06
2019-01-21T02:43:01.536Z,102096.33
2019-01-21T02:45:31.282Z,102095.55
2019-01-21T02:47:38.654Z,102096.59
2019-01-21T02:50:04.112Z,102098.47
2019-01-21T02:52:25.570Z,102099.39
2019-01-21T02:55:11.756Z,102098.20
2019-01-21T02:57:47.422Z,102090.78
2019-01-21T03:00:06.504Z,102093.08
2019-01-21T03:02:29.197Z,102097.19
2019-01-21T03:05:09.592Z,102099.38
2019-01-21T03:07:34.026Z,102087.22
2019-01-21T03:09:47.089Z,102093.45
2019-01-21T03:12:00.184Z,102093.11
2019-01-21T03:14:34.040Z,102094.27
2019-01-21T03:17:14.239Z,102097.34
2019-01-21T03:20:00.568Z,102091.36
2019-01-21T03:22:22.594Z,102093.66
2019-01-21T03:24:35.501Z,102089.70
2019-01-21T03:26:48.164Z,102092.66
2019-01-21T03:29:17.866Z,102096.12
2019-01-21T03:31:47.690Z,102101.78
2019-01-21T03:34:23.210Z,102092.55
2019-01-21T03:37:07.862Z,102094.19
2019-01-21T03:39:33.017Z,102099.53
2019-01-21T03:41:43.097Z,102096.20
2019-01-21T03:44:08.099Z,102093.72
2019-01-21T03:46:35.998Z,102094.65
2019-01-21T03:48:39.679Z,102093.38
2019-01-21T03:50:52.491Z,102090.63
2019-01-21T03:53:14.852Z,102087.34
2019-01-21T03:55:17.142Z,102086.77
2019-01-21T03:57:33.102Z,102086.14
2019-01-21T03:59:52.122Z,102083.94
2019-01-21T04:02:13.825Z,102084.52
2019-01-21T04:04:52.178Z,102088.77
2019-01-21T04:06:58.721Z,102086.34
2019-01-21T04:09:24.260Z,102085.75
2019-01-21T04:11:31.365Z,102087.53
2019-01-21T04:13:47.238Z,102083.02
2019-01-21T04:15:57.310Z,102082.48
2019-01-21T04:18:24.850Z,102085.39
2019-01-21T04:20:59.313Z,102079.88
2019-01-21T04:23:24.235Z,102077.84
2019-01-21T04:25:49.412Z,102073.28
2019-01-21T04:28:11.044Z,102082.27
2019-01-21T04:30:36.300Z,102085.81
2019-01-21T04:32:49.239Z,102083.80
2019-01-21T04:34:59.081Z,102078.72
2019-01-21T04:37:24.303Z,102073.28
2019-01-21T04:39:57.031Z,102067.33
2019-01-21T04:42:19.012Z,102078.24
2019-01-21T04:44:49.858Z,102077.27
2019-01-21T04:47:05.654Z,102076.95
2019-01-21T04:49:24.798Z,102079.91
2019-01-21T04:51:46.699Z,102079.45
2019-01-21T04:54:05.694Z,102073.66
2019-01-21T04:56:33.865Z,102075.88
2019-01-21T04:58:56.036Z,102078.78
2019-01-21T05:01:14.425Z,102076.06
2019-01-21T05:03:36.634Z,102073.81
2019-01-21T05:05:43.760Z,102069.31
2019-01-21T05:08:10.282Z,102069.83
2019-01-21T05:10:29.494Z,102073.30
2019-01-21T05:12:37.056Z,102076.88
2019-01-21T05:14:53.029Z,102076.61
2019-01-21T05:17:23.832Z,102080.98
2019-01-21T05:19:52.101Z,102076.71
2019-01-21T05:22:24.474Z,102074.89
2019-01-21T05:24:46.663Z,102067.93
2019-01-21T05:27:25.663Z,102066.55
2019-01-21T05:29:54.033Z,102063.86
2019-01-21T05:32:21.992Z,102057.80
2019-01-21T05:34:41.178Z,102061.18
2019-01-21T05:37:08.938Z,102057.34
2019-01-21T05:39:32.731Z,102056.73
2019-01-21T05:42:11.372Z,102056.75
2019-01-21T05:44:45.709Z,102052.23
2019-01-21T05:47:13.679Z,102047.81
2019-01-21T05:49:33.130Z,102048.44
2019-01-21T05:52:14.513Z,102052.20
2019-01-21T05:54:48.699Z,102052.73
2019-01-21T05:57:16.304Z,102053.17
2019-01-21T05:59:55.154Z,102057.29
2019-01-21T06:02:02.253Z,102052.51
2019-01-21T06:04:21.071Z,102049.77
2019-01-21T06:06:52.172Z,102054.14
2019-01-21T06:09:29.500Z,102059.73
2019-01-21T06:11:56.282Z,102062.28
2019-01-21T06:14:12.223Z,102062.89
2019-01-21T06:16:43.272Z,102063.28
2019-01-21T06:18:59.022Z,102061.92
2019-01-21T06:21:20.544Z,102061.11
2019-01-21T06:23:30.671Z,102065.84
2019-01-21T06:26:15.317Z,102064.94
2019-01-21T06:28:37.299Z,102065.42
2019-01-21T06:31:24.583Z,102060.77
2019-01-21T06:33:34.267Z,102062.08
2019-01-21T06:35:50.384Z,102070.48
2019-01-21T06:38:00.241Z,102066.58
2019-01-21T06:40:35.640Z,102072.52
2019-01-21T06:42:51.605Z,102067.33
2019-01-21T06:45:30.185Z,102071.92
2019-01-21T06:48:05.841Z,102074.30
2019-01-21T06:50:27.536Z,102068.64
2019-01-21T06:52:46.028Z,102072.61
2019-01-21T06:54:53.122Z,102070.89
2019-01-21T06:57:11.596Z,102071.77
2019-01-21T06:59:36.548Z,102072.84
2019-01-21T07:01:49.565Z,102069.96
2019-01-21T07:04:32.957Z,102077.31
2019-01-21T07:06:45.942Z,102082.82
2019-01-21T07:08:56.099Z,102083.63
2019-01-21T07:11:11.513Z,102089.91
2019-01-21T07:13:51.875Z,102087.53
2019-01-21T07:16:27.318Z,102092.71
2019-01-21T07:18:49.018Z,102093.78
2019-01-21T07:21:12.793Z,102094.30
2019-01-21T07:23:31.697Z,102093.05
2019-01-21T07:25:45.070Z,102098.65
2019-01-21T07:28:12.574Z,102098.46
2019-01-21T07:30:34.493Z,102097.64
2019-01-21T07:32:50.258Z,102097.42
2019-01-21T07:35:12.209Z,102090.42
2019-01-21T07:37:34.257Z,102091.74
2019-01-21T07:39:58.709Z,102090.67
2019-01-21T07:42:08.549Z,102093.50
2019-01-21T07:44:39.062Z,102096.20
2019-01-21T07:47:03.599Z,102095.32
2019-01-21T07:49:36.248Z,102096.69
2019-01-21T07:52:03.077Z,102099.25
2019-01-21T07:54:39.758Z,102102.31
2019-01-21T07:57:01.425Z,102097.41
2019-01-21T07:59:44.408Z,102098.31
2019-01-21T08:02:09.392Z,102100.28
2019-01-21T08:04:36.202Z,102091.58
2019-01-21T08:06:52.165Z,102089.24
2019-01-21T08:09:08.138Z,102083.07
2019-01-21T08:11:39.545Z,102092.72
2019-01-21T08:14:09.341Z,102093.59
2019-01-21T08:16:31.457Z,102096.97
2019-01-21T08:19:08.159Z,102094.20
2019-01-21T08:21:27.057Z,102082.81
2019-01-21T08:23:49.117Z,102084.41
2019-01-21T08:26:10.857Z,102083.83
2019-01-21T08:28:42.307Z,102089.75
2019-01-21T08:31:16.197Z,102087.01
2019-01-21T08:33:35.631Z,102085.45
2019-01-21T08:36:11.608Z,102084.95
2019-01-21T08:38:47.083Z,102086.27
2019-01-21T08:40:59.937Z,102077.22
2019-01-21T08:43:30.785Z,102079.83
2019-01-21T08:45:46.955Z,102080.69
2019-01-21T08:47:54.027Z,102081.06
2019-01-21T08:50:16.040Z,102076.23
2019-01-21T08:52:23.156Z,102084.24
2019-01-21T08:54:39.103Z,102085.48
2019-01-21T08:57:11.799Z,102094.08
2019-01-21T08:59:30.782Z,102096.66
2019-01-21T09:02:10.543Z,102101.41
2019-01-21T09:04:53.551Z,102101.23
2019-01-21T09:07:18.817Z,102106.95
2019-01-21T09:09:34.671Z,102107.03
2019-01-21T09:12:26.999Z,102106.31
2019-01-21T09:14:49.281Z,102108.00
2019-01-21T09:17:32.657Z,102103.74
2019-01-21T09:19:48.599Z,102114.71
2019-01-21T09:22:16.618Z,102109.03
2019-01-21T09:24:55.285Z,102103.84
2019-01-21T09:27:13.933Z,102101.09
2019-01-21T09:29:33.069Z,102102.72
2019-01-21T09:31:48.674Z,102112.18
2019-01-21T09:34:19.691Z,102107.82
2019-01-21T09:36:44.274Z,102104.23
2019-01-21T09:39:11.016Z,102105.98
2019-01-21T09:41:32.980Z,102107.53
2019-01-21T09:43:45.680Z,102107.09
2019-01-21T09:46:04.601Z,102107.56
2019-01-21T09:48:05.676Z,102101.28
2019-01-21T09:50:07.095Z,102099.61
2019-01-21T09:52:10.677Z,102098.95
2019-01-21T09:54:12.252Z,102093.44
2019-01-21T09:56:13.771Z,102089.40
2019-01-21T09:58:15.473Z,102094.66
2019-01-21T10:00:19.102Z,102093.58
2019-01-21T10:02:29.013Z,102090.77
2019-01-21T10:04:38.341Z,102087.96
2019-01-21T10:06:44.543Z,102093.50
2019-01-21T10:08:51.629Z,102095.73
2019-01-21T10:11:16.334Z,102092.84
2019-01-21T10:13:41.096Z,102091.37
2019-01-21T10:16:00.329Z,102087.70
2019-01-21T10:18:16.336Z,102079.31
2019-01-21T10:20:28.982Z,102078.09
2019-01-21T10:23:06.329Z,102069.30
2019-01-21T10:25:16.203Z,102066.91
2019-01-21T10:27:45.258Z,102062.14
2019-01-21T10:30:23.967Z,102061.34
2019-01-21T10:32:48.710Z,102057.23
2019-01-21T10:35:33.370Z,102054.59
2019-01-21T10:38:13.584Z,102052.09
2019-01-21T10:40:32.835Z,102048.19
2019-01-21T10:42:45.650Z,102045.63
2019-01-21T10:45:07.961Z,102043.55
2019-01-21T10:47:30.133Z,102035.80
2019-01-21T10:53:06.026Z,102042.34
2019-01-21T10:55:21.968Z,102039.98
2019-01-21T10:57:46.480Z,102029.40
2019-01-21T11:00:10.207Z,102027.16
2019-01-21T11:02:40.731Z,102023.66
2019-01-21T11:04:53.350Z,102019.56
2019-01-21T11:07:12.277Z,102013.29
2019-01-21T11:09:19.353Z,102014.86
2019-01-21T11:11:41.364Z,102012.45
2019-01-21T11:14:06.458Z,101978.77
2019-01-21T11:17:07.471Z,102011.18
2019-01-21T11:19:50.552Z,102001.05
2019-01-21T11:22:33.584Z,101959.41
2019-01-21T11:25:16.643Z,101951.15
2019-01-21T11:27:59.669Z,101994.50
2019-01-21T11:30:42.768Z,101941.73
2019-01-21T11:33:43.782Z,101977.81
2019-01-21T11:36:44.834Z,101927.10
2019-01-21T11:39:45.829Z,101965.27
2019-01-21T11:42:46.971Z,101966.72
2019-01-21T11:45:30.007Z,101963.13
2019-01-21T11:48:31.045Z,101959.20
2019-01-21T11:51:14.084Z,101916.69
2019-01-21T11:54:15.130Z,101904.42
2019-01-21T11:56:58.150Z,101897.38
2019-01-21T11:59:41.232Z,101885.80
2019-01-21T12:05:29.601Z,101941.52
2019-01-21T12:11:37.900Z,101949.42
2019-01-21T12:14:20.934Z,101944.88
2019-01-21T12:17:21.977Z,101895.78
2019-01-21T12:20:23.025Z,101883.42
2019-01-21T12:23:06.107Z,101905.86
2019-01-21T12:25:49.123Z,101892.87
2019-01-21T12:28:50.175Z,101882.44
2019-01-21T12:31:51.163Z,101890.70
2019-01-21T12:34:34.238Z,101895.83
2019-01-21T12:37:17.382Z,101933.03
2019-01-21T12:40:00.410Z,101879.61
2019-01-21T12:42:43.492Z,101878.08
2019-01-21T12:45:44.564Z,101877.20
2019-01-21T12:48:27.595Z,101863.00
2019-01-21T12:51:28.615Z,101886.41
2019-01-21T12:54:29.605Z,101886.11
2019-01-21T12:57:30.682Z,101881.14
2019-01-21T13:00:13.720Z,101925.39
2019-01-21T13:03:14.771Z,101876.20
2019-01-21T13:06:15.861Z,101873.99
2019-01-21T13:08:58.981Z,101888.45
2019-01-21T13:11:42.086Z,101866.41
2019-01-21T13:14:25.100Z,101912.00
2019-01-21T13:17:08.202Z,101906.97
2019-01-21T13:20:09.213Z,101903.20
2019-01-21T13:22:52.287Z,101898.13
2019-01-21T13:25:35.331Z,101892.27
2019-01-21T13:28:16.933Z,101893.79
2019-01-21T13:31:00.013Z,101848.29
2019-01-21T13:33:43.073Z,101887.96
2019-01-21T13:36:26.165Z,101883.36
2019-01-21T13:39:09.237Z,101840.19
2019-01-21T13:41:52.273Z,101832.80
2019-01-21T13:44:29.522Z,101870.34
2019-01-21T13:47:36.970Z,101854.89
2019-01-21T13:50:02.850Z,101853.25
2019-01-21T13:52:24.500Z,101855.55
2019-01-21T13:54:34.312Z,101851.30
2019-01-21T13:56:41.409Z,101853.36
2019-01-21T13:59:09.619Z,101856.73
2019-01-21T14:01:25.234Z,101849.97
2019-01-21T14:03:44.188Z,101845.16
2019-01-21T14:06:12.388Z,101843.43
2019-01-21T14:09:00.702Z,101843.70
2019-01-21T14:11:10.554Z,101842.55
2019-01-21T14:13:29.402Z,101836.72
2019-01-21T14:15:44.949Z,101830.33
2019-01-21T14:18:14.225Z,101830.74
2019-01-21T14:20:26.968Z,101832.27
2019-01-21T14:22:43.176Z,101825.95
2019-01-21T14:25:13.180Z,101825.52
2019-01-21T14:27:50.601Z,101822.27
2019-01-21T14:30:00.526Z,101820.97
2019-01-21T14:32:24.758Z,101816.66
2019-01-21T14:34:40.768Z,101811.89
2019-01-21T14:36:57.046Z,101806.20
2019-01-21T14:39:18.920Z,101811.65
2019-01-21T14:41:44.165Z,101807.59
2019-01-21T14:44:11.103Z,101806.20
2019-01-21T14:46:30.265Z,101801.79
2019-01-21T14:49:04.566Z,101798.03
2019-01-21T14:51:36.997Z,101796.13
2019-01-21T14:54:06.424Z,101794.52
2019-01-21T14:56:34.688Z,101794.75
2019-01-21T14:59:11.894Z,101790.78
2019-01-21T15:01:49.538Z,101788.80
2019-01-21T15:04:29.728Z,101783.44
2019-01-21T15:06:48.766Z,101785.31
2019-01-21T15:08:58.806Z,101787.39
2019-01-21T15:11:27.132Z,101786.13
2019-01-21T15:13:46.508Z,101782.26
2019-01-21T15:15:59.367Z,101775.87
2019-01-21T15:18:12.597Z,101771.91
2019-01-21T15:20:19.697Z,101770.06
2019-01-21T15:22:29.761Z,101765.16
2019-01-21T15:24:48.490Z,101765.44
2019-01-21T15:27:01.684Z,101761.84
2019-01-21T15:29:39.158Z,101758.72
2019-01-21T15:32:01.122Z,101756.98
2019-01-21T15:34:45.871Z,101758.48
2019-01-21T15:37:24.933Z,101756.86
2019-01-21T15:40:14.763Z,101753.70
2019-01-21T15:42:46.333Z,101758.77
2019-01-21T15:45:05.691Z,101758.27
2019-01-21T15:47:27.513Z,101753.60
2019-01-21T15:49:37.626Z,101753.41
2019-01-21T15:51:44.735Z,101762.59
2019-01-21T15:53:51.799Z,101755.59
2019-01-21T15:56:10.989Z,101753.25
2019-01-21T15:58:39.592Z,101743.53
2019-01-21T16:00:55.472Z,101742.37
2019-01-21T16:03:31.273Z,101746.10
2019-01-21T16:06:12.203Z,101747.12
2019-01-21T16:08:17.550Z,101746.97
2019-01-21T16:10:36.669Z,101745.80
2019-01-21T16:13:04.865Z,101747.71
2019-01-21T16:15:24.367Z,101752.28
2019-01-21T16:17:42.760Z,101741.41
2019-01-21T16:19:44.273Z,101741.66
2019-01-21T16:22:31.756Z,101749.79
2019-01-21T16:24:53.911Z,101748.81
2019-01-21T16:27:07.053Z,101749.91
2019-01-21T16:29:14.119Z,101750.77
2019-01-21T16:31:22.266Z,101752.63
2019-01-21T16:33:32.479Z,101748.77
2019-01-21T16:35:45.479Z,101749.19
2019-01-21T16:38:10.968Z,101753.87
2019-01-21T16:40:27.070Z,101750.71
2019-01-21T16:42:28.107Z,101756.35
2019-01-21T16:44:29.539Z,101751.39
2019-01-21T16:46:30.890Z,101752.75
2019-01-21T16:48:32.252Z,101744.31
2019-01-21T16:50:33.663Z,101745.65
2019-01-21T16:52:35.012Z,101742.66
2019-01-21T16:54:36.383Z,101747.38
2019-01-21T16:56:37.808Z,101751.96
2019-01-21T16:58:39.176Z,101754.66
2019-01-21T17:00:40.525Z,101752.34
2019-01-21T17:02:41.914Z,101752.90
2019-01-21T17:04:43.261Z,101750.94
2019-01-21T17:06:44.603Z,101747.78
2019-01-21T17:08:46.150Z,101728.91
2019-01-21T17:10:47.613Z,101730.66
2019-01-21T17:12:48.990Z,101724.88
2019-01-21T17:14:57.224Z,101721.08
2019-01-21T17:16:53.812Z,101713.61
2019-01-21T17:18:55.175Z,101701.98
2019-01-21T17:20:56.614Z,101699.53
2019-01-21T17:22:58.056Z,101699.28
2019-01-21T17:24:59.394Z,101692.45
2019-01-21T17:27:00.791Z,101688.83
2019-01-21T17:29:02.248Z,101689.22
2019-01-21T17:31:03.756Z,101679.59
2019-01-21T17:33:05.477Z,101676.55
2019-01-21T17:35:09.428Z,101672.15
2019-01-21T17:37:10.874Z,101675.84
2019-01-21T17:39:12.365Z,101671.14
2019-01-21T17:41:14.173Z,101667.59
2019-01-21T17:43:15.522Z,101669.41
2019-01-21T17:45:18.801Z,101673.20
2019-01-21T17:47:20.158Z,101681.45
2019-01-21T17:49:21.507Z,101677.48
2019-01-21T17:51:22.998Z,101681.43
2019-01-21T17:53:24.335Z,101674.31
2019-01-21T17:55:25.800Z,101669.30
2019-01-21T17:57:27.204Z,101673.20
2019-01-21T17:59:28.554Z,101665.94
2019-01-21T18:01:29.888Z,101670.69
2019-01-21T18:03:31.321Z,101682.56
2019-01-21T18:05:32.759Z,101696.58
2019-01-21T18:07:34.127Z,101711.63
2019-01-21T18:09:35.542Z,101727.70
2019-01-21T18:11:41.259Z,101730.45
2019-01-21T18:13:40.158Z,101725.06
2019-01-21T18:15:41.566Z,101720.52
2019-01-21T18:17:42.915Z,101712.63
2019-01-21T18:19:44.295Z,101707.67
2019-01-21T18:21:46.834Z,101709.94
2019-01-21T18:23:48.224Z,101705.83
2019-01-21T18:25:49.578Z,101705.70
2019-01-21T18:27:51.049Z,101695.88
2019-01-21T18:29:52.404Z,101690.70
2019-01-21T18:31:53.758Z,101688.29
2019-01-21T18:33:55.184Z,101698.64
2019-01-21T18:35:56.529Z,101693.50
2019-01-21T18:37:57.940Z,101693.17
2019-01-21T18:39:59.469Z,101685.49
2019-01-21T18:42:00.932Z,101694.99
2019-01-21T18:44:02.294Z,101687.47
2019-01-21T18:46:03.821Z,101688.02
2019-01-21T18:48:05.384Z,101687.05
2019-01-21T18:50:09.649Z,101687.45
2019-01-21T18:52:11.555Z,101682.33
2019-01-21T18:54:12.917Z,101675.84
2019-01-21T18:56:14.275Z,101675.33
2019-01-21T18:58:15.672Z,101676.22
2019-01-21T19:00:21.836Z,101673.50
2019-01-21T19:02:23.196Z,101672.47
2019-01-21T19:04:24.619Z,101673.84
2019-01-21T19:06:25.973Z,101679.94
2019-01-21T19:08:27.321Z,101683.45
2019-01-21T19:10:28.739Z,101684.94
2019-01-21T19:12:30.153Z,101675.72
2019-01-21T19:14:31.581Z,101669.59
2019-01-21T19:16:32.930Z,101663.56
2019-01-21T19:18:34.383Z,101657.36
2019-01-21T19:20:35.735Z,101661.41
2019-01-21T19:22:37.107Z,101661.38
2019-01-21T19:24:38.572Z,101659.11
2019-01-21T19:26:40.002Z,101653.27
2019-01-21T19:28:41.420Z,101657.19
2019-01-21T19:30:42.804Z,101661.38
2019-01-21T19:32:44.304Z,101665.13
2019-01-21T19:34:45.729Z,101664.23
2019-01-21T19:36:47.089Z,101666.04
2019-01-21T19:38:48.688Z,101667.78
2019-01-21T19:40:50.233Z,101665.64
2019-01-21T19:42:51.586Z,101668.39
2019-01-21T19:44:52.929Z,101664.02
2019-01-21T19:46:54.583Z,101661.17
2019-01-21T19:48:55.926Z,101658.50
2019-01-21T19:50:57.297Z,101654.70
2019-01-21T19:52:58.723Z,101652.32
2019-01-21T19:55:00.153Z,101646.91
2019-01-21T19:57:01.555Z,101644.58
2019-01-21T19:59:03.082Z,101648.48
2019-01-21T20:01:04.427Z,101642.83
2019-01-21T20:03:05.780Z,101654.19
2019-01-21T20:05:08.895Z,101651.52
2019-01-21T20:07:10.258Z,101648.89
2019-01-21T20:09:11.602Z,101651.45
2019-01-21T20:11:13.021Z,101650.31
2019-01-21T20:13:14.373Z,101644.19
2019-01-21T20:15:17.158Z,101651.95
2019-01-21T20:17:18.580Z,101644.44
2019-01-21T20:19:19.940Z,101646.43
2019-01-21T20:21:21.320Z,101648.80
2019-01-21T20:23:22.729Z,101642.75
2019-01-21T20:25:24.388Z,101648.36
2019-01-21T20:27:25.749Z,101643.37
2019-01-21T20:29:27.161Z,101640.19
2019-01-21T20:31:28.496Z,101635.31
2019-01-21T20:33:31.031Z,101641.72
2019-01-21T20:35:32.377Z,101645.39
2019-01-21T20:37:33.721Z,101639.87
2019-01-21T20:39:35.184Z,101643.75
2019-01-21T20:41:36.645Z,101637.45
2019-01-21T20:43:38.005Z,101635.91
2019-01-21T20:45:39.360Z,101635.00
2019-01-21T20:47:41.156Z,101633.05
2019-01-21T20:49:42.518Z,101628.46
2019-01-21T20:51:43.852Z,101620.43
2019-01-21T20:53:45.394Z,101618.38
2019-01-21T20:55:46.741Z,101623.56
2019-01-21T20:57:48.195Z,101622.70
2019-01-21T20:59:49.616Z,101622.31
2019-01-21T21:01:51.464Z,101619.13
2019-01-21T21:03:52.841Z,101620.37
2019-01-21T21:05:54.290Z,101614.31
2019-01-21T21:07:55.668Z,101621.48
2019-01-21T21:09:57.000Z,101616.93
2019-01-21T21:11:58.402Z,101618.91
2019-01-21T21:13:59.734Z,101620.52
2019-01-21T21:16:01.072Z,101618.20
2019-01-21T21:18:02.784Z,101615.08
2019-01-21T21:20:08.858Z,101611.47
2019-01-21T21:22:10.194Z,101609.67
2019-01-21T21:24:11.598Z,101606.80
2019-01-21T21:26:12.966Z,101605.67
2019-01-21T21:28:14.366Z,101603.74
2019-01-21T21:30:28.268Z,101602.42
2019-01-21T21:32:29.687Z,101602.37
2019-01-21T21:34:31.029Z,101605.77
2019-01-21T21:36:32.393Z,101612.83
2019-01-21T21:38:33.802Z,101604.20
2019-01-21T21:40:35.611Z,101607.67
2019-01-21T21:42:37.099Z,101610.98
2019-01-21T21:44:38.552Z,101602.33
2019-01-21T21:46:39.928Z,101601.89
2019-01-21T21:48:41.297Z,101597.70
2019-01-21T21:50:42.697Z,101593.13
2019-01-21T21:52:44.040Z,101593.30
2019-01-21T21:54:45.421Z,101594.27
2019-01-21T21:56:47.136Z,101598.80
2019-01-21T21:58:48.684Z,101593.98
2019-01-21T22:00:50.028Z,101590.83
2019-01-21T22:02:51.524Z,101598.03
2019-01-21T22:04:53.057Z,101595.66
2019-01-21T22:06:54.420Z,101594.63
2019-01-21T22:08:56.288Z,101591.17
2019-01-21T22:10:57.695Z,101583.21
2019-01-21T22:12:59.063Z,101581.30
2019-01-21T22:15:00.416Z,101581.04
2019-01-21T22:17:01.801Z,101575.44
2019-01-21T22:19:03.254Z,101572.94
2019-01-21T22:21:04.712Z,101581.02
2019-01-21T22:23:06.108Z,101578.48
2019-01-21T22:25:08.264Z,101579.45
2019-01-21T22:27:10.123Z,101579.77
2019-01-21T22:29:11.541Z,101579.84
2019-01-21T22:31:12.990Z,101578.07
2019-01-21T22:33:14.355Z,101576.83
2019-01-21T22:35:15.772Z,101574.30
2019-01-21T22:37:17.537Z,101572.28
2019-01-21T22:39:18.920Z,101565.03
2019-01-21T22:41:20.441Z,101558.92
2019-01-21T22:43:21.802Z,101556.80
2019-01-21T22:45:23.247Z,101557.66
2019-01-21T22:47:24.789Z,101551.54
2019-01-21T22:49:26.139Z,101555.05
2019-01-21T22:51:27.647Z,101544.63
2019-01-21T22:53:29.055Z,101544.50
2019-01-21T22:55:30.397Z,101540.39
2019-01-21T22:57:31.747Z,101540.09
2019-01-21T22:59:33.136Z,101535.98
2019-01-21T23:01:37.796Z,101533.27
2019-01-21T23:03:39.298Z,101532.41
2019-01-21T23:05:40.967Z,101532.30
2019-01-21T23:07:42.316Z,101536.78
2019-01-21T23:09:43.877Z,101532.99
2019-01-21T23:11:45.239Z,101529.00
2019-01-21T23:13:46.577Z,101529.63
2019-01-21T23:15:48.384Z,101525.09
2019-01-21T23:17:49.744Z,101524.13
2019-01-21T23:19:52.201Z,101525.47
2019-01-21T23:21:53.627Z,101525.22
2019-01-21T23:23:54.988Z,101523.82
2019-01-21T23:25:56.340Z,101527.80
2019-01-21T23:27:57.745Z,101526.34
2019-01-21T23:29:59.082Z,101531.52
2019-01-21T23:32:00.461Z,101526.08
2019-01-21T23:34:02.653Z,101528.00
2019-01-21T23:36:04.115Z,101523.81
2019-01-21T23:38:05.453Z,101522.19
2019-01-21T23:40:09.460Z,101522.52
2019-01-21T23:42:10.881Z,101512.03
2019-01-21T23:44:12.700Z,101519.38
2019-01-21T23:46:14.040Z,101515.46
2019-01-21T23:48:15.391Z,101505.89
2019-01-21T23:50:17.111Z,101506.07
2019-01-21T23:52:18.444Z,101498.72
2019-01-21T23:54:19.805Z,101499.31
2019-01-21T23:56:21.549Z,101497.13
2019-01-21T23:58:22.905Z,101498.22
